createdAt,value
2023-03-03T00:02:20.703Z,33.90
2023-03-03T00:04:47.094Z,33.95
2023-03-03T00:07:15.549Z,34.88
2023-03-03T00:09:41.843Z,37.85
2023-03-03T00:12:08.142Z,38.13
2023-03-03T00:14:34.518Z,38.88
2023-03-03T00:17:00.811Z,39.25
2023-03-03T00:19:27.139Z,41.75
2023-03-03T00:21:53.467Z,42.00
2023-03-03T00:24:20.050Z,35.38
2023-03-03T00:26:46.427Z,40.45
2023-03-03T00:29:12.836Z,39.72
2023-03-03T00:31:39.160Z,40.88
2023-03-03T00:34:06.313Z,40.38
2023-03-03T00:36:32.882Z,38.15
2023-03-03T00:38:59.255Z,41.58
2023-03-03T00:41:25.553Z,43.60
2023-03-03T00:43:51.926Z,41.33
2023-03-03T00:46:19.078Z,41.58
2023-03-03T00:48:45.472Z,40.83
2023-03-03T00:51:12.014Z,39.85
2023-03-03T00:53:38.590Z,43.78
2023-03-03T00:56:04.921Z,37.80
2023-03-03T00:58:31.322Z,43.22
2023-03-03T01:00:58.963Z,41.63
2023-03-03T01:03:25.319Z,40.97
2023-03-03T01:05:51.645Z,35.70
2023-03-03T01:08:18.016Z,40.45
2023-03-03T01:10:44.325Z,42.25
2023-03-03T01:13:10.641Z,40.10
2023-03-03T01:15:36.958Z,43.45
2023-03-03T01:18:03.341Z,38.85
2023-03-03T01:20:29.673Z,42.45
2023-03-03T01:22:55.980Z,42.62
2023-03-03T01:25:22.284Z,42.53
2023-03-03T01:27:48.589Z,40.78
2023-03-03T01:30:14.940Z,40.78
2023-03-03T01:32:41.232Z,39.85
2023-03-03T01:35:07.587Z,40.40
2023-03-03T01:37:33.908Z,40.25
2023-03-03T01:40:00.289Z,33.08
2023-03-03T01:42:29.331Z,39.42
2023-03-03T01:44:55.663Z,38.85
2023-03-03T01:47:21.975Z,36.97
2023-03-03T01:49:48.358Z,36.88
2023-03-03T01:52:14.702Z,37.28
2023-03-03T01:54:41.003Z,36.00
2023-03-03T01:57:07.337Z,37.80
2023-03-03T01:59:33.649Z,37.40
2023-03-03T02:02:00.020Z,39.25
2023-03-03T02:04:26.622Z,37.75
2023-03-03T02:06:53.097Z,39.97
2023-03-03T02:09:19.477Z,41.58
2023-03-03T02:11:45.885Z,40.72
2023-03-03T02:14:12.201Z,39.15
2023-03-03T02:16:38.520Z,44.03
2023-03-03T02:19:04.829Z,41.60
2023-03-03T02:21:31.153Z,41.90
2023-03-03T02:23:57.454Z,38.03
2023-03-03T02:26:23.929Z,37.75
2023-03-03T02:28:50.284Z,37.47
2023-03-03T02:31:16.704Z,36.03
2023-03-03T02:33:43.039Z,34.92
2023-03-03T02:36:09.344Z,36.15
2023-03-03T02:38:35.675Z,42.40
2023-03-03T02:41:02.077Z,38.10
2023-03-03T02:43:28.418Z,37.40
2023-03-03T02:45:54.947Z,34.80
2023-03-03T02:48:21.263Z,37.08
2023-03-03T02:50:47.585Z,37.65
2023-03-03T02:53:13.894Z,36.92
2023-03-03T02:55:40.226Z,34.92
2023-03-03T02:58:06.540Z,36.33
2023-03-03T03:00:33.349Z,37.65
2023-03-03T03:02:59.949Z,37.25
2023-03-03T03:05:26.259Z,35.67
2023-03-03T03:07:52.581Z,35.97
2023-03-03T03:10:18.905Z,35.30
2023-03-03T03:12:45.231Z,35.03
2023-03-03T03:15:11.770Z,35.37
2023-03-03T03:17:38.251Z,37.00
2023-03-03T03:20:04.546Z,32.50
2023-03-03T03:22:30.871Z,32.40
2023-03-03T03:24:57.631Z,32.20
2023-03-03T03:27:23.955Z,31.40
2023-03-03T03:29:50.281Z,33.78
2023-03-03T03:32:16.656Z,33.60
2023-03-03T03:34:42.954Z,32.15
2023-03-03T03:37:09.997Z,34.95
2023-03-03T03:39:36.621Z,33.45
2023-03-03T03:42:02.970Z,33.40
2023-03-03T03:44:29.338Z,34.95
2023-03-03T03:46:55.651Z,32.63
2023-03-03T03:49:22.075Z,32.35
2023-03-03T03:51:48.402Z,32.20
2023-03-03T03:54:14.726Z,30.55
2023-03-03T03:56:41.040Z,32.45
2023-03-03T03:59:07.384Z,32.63
2023-03-03T04:01:33.719Z,34.35
2023-03-03T04:04:00.036Z,35.67
2023-03-03T04:06:26.409Z,32.33
2023-03-03T04:08:52.717Z,32.05
2023-03-03T04:11:19.049Z,32.10
2023-03-03T04:13:45.373Z,33.72
2023-03-03T04:16:11.782Z,29.55
2023-03-03T04:18:38.200Z,31.70
2023-03-03T04:21:04.535Z,32.53
2023-03-03T04:23:30.953Z,31.25
2023-03-03T04:25:57.258Z,34.40
2023-03-03T04:28:25.381Z,33.42
2023-03-03T04:30:51.715Z,32.58
2023-03-03T04:33:18.039Z,29.70
2023-03-03T04:35:44.419Z,29.85
2023-03-03T04:38:10.878Z,29.48
2023-03-03T04:40:37.211Z,30.35
2023-03-03T04:43:04.260Z,31.30
2023-03-03T04:45:30.615Z,31.33
2023-03-03T04:47:56.960Z,28.55
2023-03-03T04:50:23.266Z,26.70
2023-03-03T04:52:49.609Z,26.93
2023-03-03T04:55:16.896Z,25.48
2023-03-03T04:57:43.222Z,24.23
2023-03-03T05:00:09.537Z,25.05
2023-03-03T05:02:35.885Z,25.25
2023-03-03T05:05:02.308Z,22.00
2023-03-03T05:07:28.651Z,24.35
2023-03-03T05:09:54.963Z,24.12
2023-03-03T05:12:21.322Z,24.50
2023-03-03T05:14:47.834Z,24.67
2023-03-03T05:17:14.499Z,23.92
2023-03-03T05:19:40.828Z,24.90
2023-03-03T05:22:07.161Z,25.33
2023-03-03T05:24:33.461Z,22.73
2023-03-03T05:26:59.811Z,26.45
2023-03-03T05:29:26.411Z,24.52
2023-03-03T05:31:52.840Z,24.87
2023-03-03T05:34:19.206Z,25.67
2023-03-03T05:36:45.517Z,24.85
2023-03-03T05:39:11.841Z,26.33
2023-03-03T05:41:38.206Z,25.35
2023-03-03T05:44:04.579Z,28.02
2023-03-03T05:46:30.911Z,28.27
2023-03-03T05:48:57.321Z,28.33
2023-03-03T05:51:23.641Z,29.00
2023-03-03T05:53:49.964Z,27.10
2023-03-03T05:56:16.288Z,28.73
2023-03-03T05:58:42.617Z,29.45
2023-03-03T06:01:08.982Z,29.52
2023-03-03T06:03:35.296Z,27.20
2023-03-03T06:06:01.593Z,26.10
2023-03-03T06:08:27.979Z,27.00
2023-03-03T06:10:54.279Z,28.20
2023-03-03T06:13:20.585Z,27.37
2023-03-03T06:15:46.929Z,28.85
2023-03-03T06:18:13.275Z,26.05
2023-03-03T06:20:39.630Z,27.62
2023-03-03T06:23:05.985Z,30.17
2023-03-03T06:25:32.304Z,27.83
2023-03-03T06:27:58.609Z,28.70
2023-03-03T06:30:27.039Z,28.58
2023-03-03T06:32:53.371Z,26.98
2023-03-03T06:35:19.779Z,26.98
2023-03-03T06:37:46.127Z,28.42
2023-03-03T06:40:12.489Z,30.00
2023-03-03T06:42:38.842Z,28.90
2023-03-03T06:45:05.167Z,31.30
2023-03-03T06:47:31.699Z,28.27
2023-03-03T06:49:58.014Z,28.67
2023-03-03T06:52:24.359Z,27.52
2023-03-03T06:54:50.712Z,30.10
2023-03-03T06:57:17.083Z,26.40
2023-03-03T06:59:43.397Z,25.98
2023-03-03T07:02:09.699Z,24.00
2023-03-03T07:04:36.253Z,25.30
2023-03-03T07:07:02.752Z,23.67
2023-03-03T07:09:29.073Z,25.12
2023-03-03T07:11:55.386Z,25.12
2023-03-03T07:14:21.734Z,23.90
2023-03-03T07:16:48.112Z,22.92
2023-03-03T07:19:14.444Z,24.05
2023-03-03T07:21:40.779Z,25.70
2023-03-03T07:24:07.129Z,25.15
2023-03-03T07:26:33.656Z,25.88
2023-03-03T07:28:59.995Z,25.40
2023-03-03T07:31:26.934Z,25.37
2023-03-03T07:33:53.412Z,24.65
2023-03-03T07:36:19.807Z,23.52
2023-03-03T07:38:46.152Z,24.23
2023-03-03T07:41:12.467Z,24.40
2023-03-03T07:43:38.849Z,23.15
2023-03-03T07:46:05.971Z,23.30
2023-03-03T07:48:32.329Z,25.62
2023-03-03T07:50:58.632Z,23.90
2023-03-03T07:53:24.928Z,23.00
2023-03-03T07:55:51.231Z,22.67
2023-03-03T07:58:17.596Z,22.73
2023-03-03T08:00:44.534Z,21.50
2023-03-03T08:03:11.001Z,22.33
2023-03-03T08:05:37.314Z,23.00
2023-03-03T08:08:03.781Z,23.15
2023-03-03T08:10:30.264Z,22.60
2023-03-03T08:12:56.621Z,21.70
2023-03-03T08:15:23.330Z,23.05
2023-03-03T08:17:49.714Z,19.77
2023-03-03T08:20:16.043Z,20.25
2023-03-03T08:22:43.653Z,18.02
2023-03-03T08:25:09.997Z,19.02
2023-03-03T08:27:36.339Z,19.27
2023-03-03T08:30:02.678Z,18.20
2023-03-03T08:32:29.187Z,18.23
2023-03-03T08:34:55.572Z,18.02
2023-03-03T08:37:22.008Z,17.67
2023-03-03T08:39:48.386Z,16.73
2023-03-03T08:42:16.235Z,17.45
2023-03-03T08:44:43.256Z,18.12
2023-03-03T08:47:09.625Z,17.25
2023-03-03T08:49:35.999Z,15.43
2023-03-03T08:52:02.317Z,17.65
2023-03-03T08:54:28.993Z,16.85
2023-03-03T08:56:55.397Z,16.45
2023-03-03T08:59:22.473Z,15.30
2023-03-03T09:01:48.845Z,15.32
2023-03-03T09:04:15.263Z,14.87
2023-03-03T09:06:41.752Z,16.70
2023-03-03T09:09:08.087Z,15.35
2023-03-03T09:11:34.471Z,15.73
2023-03-03T09:14:00.861Z,15.20
2023-03-03T09:16:27.248Z,15.55
2023-03-03T09:18:53.648Z,15.70
2023-03-03T09:21:19.961Z,15.65
2023-03-03T09:23:46.277Z,16.10
2023-03-03T09:26:12.575Z,14.35
2023-03-03T09:28:38.899Z,14.98
2023-03-03T09:31:07.524Z,14.48
2023-03-03T09:33:34.034Z,14.82
2023-03-03T09:36:00.405Z,12.63
2023-03-03T09:38:26.834Z,12.07
2023-03-03T09:40:53.634Z,13.02
2023-03-03T09:43:24.273Z,13.10
2023-03-03T09:45:50.679Z,13.38
2023-03-03T09:48:17.188Z,11.18
2023-03-03T09:50:43.544Z,11.55
2023-03-03T09:53:09.862Z,11.20
2023-03-03T09:55:37.295Z,11.48
2023-03-03T09:58:10.870Z,12.35
2023-03-03T10:00:37.658Z,10.45
2023-03-03T10:03:04.380Z,9.82
2023-03-03T10:05:30.767Z,9.77
2023-03-03T10:07:57.096Z,9.88
2023-03-03T10:10:23.409Z,9.25
2023-03-03T10:12:50.569Z,9.40
2023-03-03T10:15:17.147Z,10.30
2023-03-03T10:17:43.520Z,9.35
2023-03-03T10:20:09.846Z,9.00
2023-03-03T10:22:36.321Z,9.57
2023-03-03T10:25:02.853Z,10.25
2023-03-03T10:27:29.172Z,9.90
2023-03-03T10:29:56.645Z,9.57
2023-03-03T10:32:23.237Z,9.68
2023-03-03T10:34:49.694Z,9.32
2023-03-03T10:37:16.016Z,8.43
2023-03-03T10:39:42.350Z,10.05
2023-03-03T10:42:08.670Z,9.18
2023-03-03T10:44:34.988Z,9.02
2023-03-03T10:47:01.445Z,9.00
2023-03-03T10:49:28.766Z,8.40
2023-03-03T10:51:55.165Z,8.10
2023-03-03T10:54:21.716Z,8.25
2023-03-03T10:56:53.395Z,9.02
2023-03-03T10:59:20.073Z,9.85
2023-03-03T11:01:46.446Z,8.35
2023-03-03T11:04:12.877Z,8.55
2023-03-03T11:06:39.260Z,7.72
2023-03-03T11:09:05.575Z,8.13
2023-03-03T11:11:31.956Z,7.18
2023-03-03T11:13:58.284Z,6.35
2023-03-03T11:16:24.700Z,7.35
2023-03-03T11:18:51.133Z,6.35
2023-03-03T11:21:17.458Z,7.53
2023-03-03T11:23:43.805Z,7.75
2023-03-03T11:26:10.124Z,7.55
2023-03-03T11:28:36.541Z,6.18
2023-03-03T11:31:02.935Z,7.32
2023-03-03T11:33:29.367Z,7.10
2023-03-03T11:35:55.703Z,7.53
2023-03-03T11:38:22.094Z,7.12
2023-03-03T11:40:48.548Z,8.52
2023-03-03T11:43:26.315Z,8.25
2023-03-03T11:46:00.428Z,8.30
2023-03-03T11:48:26.787Z,7.57
2023-03-03T11:50:53.781Z,8.07
2023-03-03T11:53:20.133Z,7.68
2023-03-03T11:55:46.452Z,8.10
2023-03-03T11:58:12.760Z,6.95
2023-03-03T12:00:39.091Z,7.55
2023-03-03T12:03:05.506Z,7.18
2023-03-03T12:05:31.883Z,6.85
2023-03-03T12:07:58.243Z,7.15
2023-03-03T12:10:24.557Z,6.97
2023-03-03T12:12:50.877Z,7.00
2023-03-03T12:15:17.169Z,7.32
2023-03-03T12:17:43.527Z,6.80
2023-03-03T12:20:09.877Z,6.30
2023-03-03T12:22:36.837Z,7.00
2023-03-03T12:25:03.270Z,6.78
2023-03-03T12:27:29.673Z,5.97
2023-03-03T12:29:56.310Z,6.97
2023-03-03T12:32:22.849Z,5.97
2023-03-03T12:34:49.385Z,5.93
2023-03-03T12:37:15.768Z,5.65
2023-03-03T12:39:42.300Z,5.15
2023-03-03T12:42:08.725Z,5.45
2023-03-03T12:44:35.147Z,5.43
2023-03-03T12:47:02.080Z,4.78
2023-03-03T12:49:32.443Z,5.20
2023-03-03T12:52:01.404Z,5.50
2023-03-03T12:54:27.800Z,4.70
2023-03-03T12:56:54.953Z,4.82
2023-03-03T12:59:21.372Z,4.40
2023-03-03T13:01:47.782Z,4.12
2023-03-03T13:04:14.328Z,4.72
2023-03-03T13:06:40.845Z,4.57
2023-03-03T13:09:07.282Z,5.00
2023-03-03T13:11:33.726Z,4.72
2023-03-03T13:14:00.257Z,5.37
2023-03-03T13:16:40.254Z,4.93
2023-03-03T13:19:07.643Z,4.47
2023-03-03T13:21:34.168Z,5.25
2023-03-03T13:24:01.653Z,5.20
2023-03-03T13:26:29.774Z,5.47
2023-03-03T13:28:57.213Z,5.57
2023-03-03T13:31:23.643Z,5.85
2023-03-03T13:33:51.542Z,5.97
2023-03-03T13:36:17.947Z,5.97
2023-03-03T13:38:44.375Z,5.95
2023-03-03T13:41:10.802Z,6.97
2023-03-03T13:43:37.288Z,5.87
2023-03-03T13:46:05.679Z,6.53
2023-03-03T13:48:32.155Z,6.15
2023-03-03T13:50:58.646Z,6.20
2023-03-03T13:53:25.015Z,5.28
2023-03-03T13:55:51.662Z,6.50
2023-03-03T13:58:18.113Z,6.20
2023-03-03T14:00:44.991Z,6.40
2023-03-03T14:03:11.417Z,5.75
2023-03-03T14:05:38.535Z,5.35
2023-03-03T14:08:05.219Z,5.90
2023-03-03T14:10:31.618Z,5.72
2023-03-03T14:12:58.091Z,5.43
2023-03-03T14:15:24.969Z,6.05
2023-03-03T14:17:51.369Z,6.62
2023-03-03T14:20:17.766Z,7.12
2023-03-03T14:22:44.206Z,6.35
2023-03-03T14:25:10.676Z,7.12
2023-03-03T14:27:37.524Z,6.60
2023-03-03T14:30:04.036Z,6.60
2023-03-03T14:32:44.800Z,6.93
2023-03-03T14:35:11.944Z,7.57
2023-03-03T14:37:38.483Z,7.80
2023-03-03T14:40:05.014Z,6.50
2023-03-03T14:42:36.882Z,7.30
2023-03-03T14:45:04.912Z,7.60
2023-03-03T14:47:31.333Z,6.87
2023-03-03T14:50:00.509Z,6.97
2023-03-03T14:52:27.027Z,7.12
2023-03-03T14:54:53.504Z,7.50
2023-03-03T14:57:19.938Z,7.15
2023-03-03T14:59:46.417Z,7.10
2023-03-03T15:02:12.824Z,7.07
2023-03-03T15:04:39.422Z,5.87
2023-03-03T15:07:05.840Z,5.85
2023-03-03T15:09:37.675Z,6.45
2023-03-03T15:12:04.323Z,7.50
2023-03-03T15:14:30.826Z,6.22
2023-03-03T15:16:57.192Z,6.25
2023-03-03T15:19:23.574Z,6.20
2023-03-03T15:21:49.984Z,7.47
2023-03-03T15:24:16.432Z,6.65
2023-03-03T15:26:43.013Z,7.50
2023-03-03T15:29:09.435Z,7.28
2023-03-03T15:31:37.211Z,7.10
2023-03-03T15:34:03.694Z,7.03
2023-03-03T15:36:30.202Z,7.50
2023-03-03T15:38:56.911Z,8.45
2023-03-03T15:41:23.359Z,7.40
2023-03-03T15:43:49.759Z,9.95
2023-03-03T15:46:16.224Z,7.60
2023-03-03T15:48:42.675Z,7.70
2023-03-03T15:51:09.084Z,8.48
2023-03-03T15:53:37.391Z,7.68
2023-03-03T15:56:03.776Z,9.00
2023-03-03T15:58:30.414Z,9.20
2023-03-03T16:00:56.934Z,8.77
2023-03-03T16:03:23.302Z,9.07
2023-03-03T16:05:49.654Z,8.90
2023-03-03T16:08:16.028Z,9.85
2023-03-03T16:10:42.340Z,9.90
2023-03-03T16:13:08.674Z,10.68
2023-03-03T16:15:34.970Z,9.88
2023-03-03T16:18:01.304Z,10.82
2023-03-03T16:20:27.614Z,10.55
2023-03-03T16:22:53.947Z,11.70
2023-03-03T16:25:20.249Z,10.48
2023-03-03T16:27:46.580Z,11.10
2023-03-03T16:30:13.038Z,12.20
2023-03-03T16:32:39.483Z,13.73
2023-03-03T16:35:05.848Z,12.77
2023-03-03T16:37:32.322Z,14.45
2023-03-03T16:39:58.648Z,14.00
2023-03-03T16:42:24.952Z,16.65
2023-03-03T16:44:51.345Z,15.05
2023-03-03T16:47:17.703Z,16.75
2023-03-03T16:49:44.041Z,17.27
2023-03-03T16:52:10.389Z,16.95
2023-03-03T16:54:36.706Z,17.37
2023-03-03T16:57:03.073Z,18.90
2023-03-03T16:59:29.398Z,17.23
2023-03-03T17:01:55.696Z,16.60
2023-03-03T17:04:22.055Z,17.48
2023-03-03T17:06:48.394Z,18.12
2023-03-03T17:09:30.095Z,16.87
2023-03-03T17:12:00.742Z,18.60
2023-03-03T17:14:27.132Z,17.87
2023-03-03T17:16:53.512Z,19.05
2023-03-03T17:19:20.333Z,18.92
2023-03-03T17:21:46.664Z,19.25
2023-03-03T17:24:12.977Z,19.58
2023-03-03T17:26:39.342Z,19.60
2023-03-03T17:29:07.549Z,16.92
2023-03-03T17:31:33.900Z,16.52
2023-03-03T17:34:00.283Z,17.40
2023-03-03T17:36:26.815Z,16.98
2023-03-03T17:38:53.139Z,17.67
2023-03-03T17:41:19.471Z,16.52
2023-03-03T17:43:45.808Z,17.77
2023-03-03T17:46:12.169Z,18.73
2023-03-03T17:48:39.380Z,16.73
2023-03-03T17:51:05.721Z,18.12
2023-03-03T17:53:32.036Z,16.87
2023-03-03T17:55:58.427Z,20.52
2023-03-03T17:58:25.902Z,20.58
2023-03-03T18:00:52.229Z,23.10
2023-03-03T18:03:18.698Z,19.60
2023-03-03T18:05:45.223Z,20.42
2023-03-03T18:08:12.825Z,22.05
2023-03-03T18:10:40.428Z,23.27
2023-03-03T18:13:08.392Z,22.65
2023-03-03T18:15:34.798Z,21.10
2023-03-03T18:18:01.152Z,23.45
2023-03-03T18:20:27.478Z,23.77
2023-03-03T18:22:54.145Z,20.98
2023-03-03T18:25:20.770Z,21.77
2023-03-03T18:27:48.319Z,21.77
2023-03-03T18:30:14.702Z,21.87
2023-03-03T18:32:41.025Z,23.25
2023-03-03T18:35:07.413Z,22.65
2023-03-03T18:37:33.856Z,24.05
2023-03-03T18:40:00.183Z,21.83
2023-03-03T18:42:30.444Z,20.40
2023-03-03T18:44:57.433Z,22.77
2023-03-03T18:47:23.741Z,22.85
2023-03-03T18:49:50.210Z,20.42
2023-03-03T18:52:16.533Z,20.92
2023-03-03T18:54:42.866Z,20.12
2023-03-03T18:57:09.985Z,20.83
2023-03-03T18:59:36.521Z,21.45
2023-03-03T19:02:02.868Z,19.58
2023-03-03T19:04:29.195Z,22.62
2023-03-03T19:06:55.530Z,21.33
2023-03-03T19:09:21.868Z,20.17
2023-03-03T19:11:48.245Z,20.92
2023-03-03T19:14:14.561Z,20.98
2023-03-03T19:16:40.916Z,19.55
2023-03-03T19:19:07.225Z,21.08
2023-03-03T19:21:33.605Z,20.95
2023-03-03T19:24:00.648Z,20.00
2023-03-03T19:26:30.414Z,20.02
2023-03-03T19:28:56.817Z,22.92
2023-03-03T19:31:23.261Z,20.50
2023-03-03T19:33:52.866Z,22.35
2023-03-03T19:36:20.548Z,20.17
2023-03-03T19:38:46.851Z,19.52
2023-03-03T19:41:13.144Z,19.65
2023-03-03T19:43:39.438Z,19.60
2023-03-03T19:46:05.813Z,18.80
2023-03-03T19:48:32.179Z,20.00
2023-03-03T19:50:58.545Z,19.70
2023-03-03T19:53:24.868Z,19.50
2023-03-03T19:55:51.186Z,19.20
2023-03-03T19:58:18.510Z,19.02
2023-03-03T20:00:44.900Z,18.08
2023-03-03T20:03:11.253Z,19.83
2023-03-03T20:05:37.584Z,18.80
2023-03-03T20:08:03.942Z,20.52
2023-03-03T20:10:32.162Z,18.83
2023-03-03T20:13:02.680Z,18.02
2023-03-03T20:15:28.983Z,19.33
2023-03-03T20:17:55.385Z,20.33
2023-03-03T20:20:21.692Z,19.98
2023-03-03T20:22:48.060Z,18.92
2023-03-03T20:25:15.609Z,19.12
2023-03-03T20:27:41.962Z,20.37
2023-03-03T20:30:08.818Z,17.87
2023-03-03T20:32:35.248Z,19.35
2023-03-03T20:35:01.690Z,20.45
2023-03-03T20:37:28.004Z,18.37
2023-03-03T20:39:54.334Z,19.40
2023-03-03T20:42:20.649Z,20.27
2023-03-03T20:44:46.970Z,19.67
2023-03-03T20:47:13.290Z,18.15
2023-03-03T20:49:39.610Z,20.40
2023-03-03T20:52:06.201Z,18.02
2023-03-03T20:54:32.574Z,19.98
2023-03-03T20:56:58.948Z,19.00
2023-03-03T20:59:25.268Z,17.20
2023-03-03T21:01:53.272Z,18.52
2023-03-03T21:04:19.773Z,18.70
2023-03-03T21:06:46.238Z,20.23
2023-03-03T21:09:12.589Z,19.12
2023-03-03T21:11:38.891Z,20.27
2023-03-03T21:14:05.208Z,21.10
2023-03-03T21:16:32.144Z,20.10
2023-03-03T21:18:58.565Z,21.62
2023-03-03T21:23:56.291Z,20.85
2023-03-03T21:26:22.600Z,20.20
2023-03-03T21:28:48.941Z,21.87
2023-03-03T21:31:15.568Z,20.98
2023-03-03T21:33:41.941Z,21.23
2023-03-03T21:36:08.354Z,24.00
2023-03-03T21:38:34.682Z,21.90
2023-03-03T21:41:01.059Z,23.02
2023-03-03T21:43:27.390Z,23.52
2023-03-03T21:45:53.846Z,22.92
2023-03-03T21:48:20.211Z,24.17
2023-03-03T21:50:48.929Z,25.37
2023-03-03T21:53:15.240Z,27.95
2023-03-03T21:55:44.591Z,25.98
2023-03-03T21:58:10.918Z,25.75
2023-03-03T22:00:37.287Z,30.02
2023-03-03T22:03:04.132Z,26.40
2023-03-03T22:05:30.484Z,28.08
2023-03-03T22:07:56.794Z,27.77
2023-03-03T22:10:23.450Z,26.40
2023-03-03T22:12:49.777Z,26.10
2023-03-03T22:15:16.085Z,26.87
2023-03-03T22:17:43.272Z,26.10
2023-03-03T22:20:09.594Z,25.83
2023-03-03T22:22:35.940Z,27.65
2023-03-03T22:25:02.318Z,27.90
2023-03-03T22:27:28.667Z,26.75
2023-03-03T22:29:55.018Z,30.05
2023-03-03T22:32:21.353Z,26.73
2023-03-03T22:34:47.832Z,26.45
2023-03-03T22:37:14.200Z,27.73
2023-03-03T22:39:40.566Z,26.70
2023-03-03T22:42:06.872Z,26.02
2023-03-03T22:44:33.205Z,25.98
2023-03-03T22:46:59.677Z,25.30
2023-03-03T22:49:26.000Z,27.52
2023-03-03T22:51:52.350Z,26.58
2023-03-03T22:54:18.668Z,24.60
2023-03-03T22:56:44.972Z,27.60
2023-03-03T22:59:11.314Z,24.98
2023-03-03T23:01:37.638Z,23.65
2023-03-03T23:04:03.952Z,23.27
2023-03-03T23:06:30.253Z,23.35
2023-03-03T23:08:56.596Z,23.30
2023-03-03T23:11:24.723Z,21.35
2023-03-03T23:13:51.053Z,23.30
2023-03-03T23:16:17.455Z,22.75
2023-03-03T23:18:43.890Z,23.00
2023-03-03T23:21:10.197Z,22.85
2023-03-03T23:23:36.527Z,22.17
2023-03-03T23:26:02.916Z,20.77
2023-03-03T23:28:29.225Z,22.13
2023-03-03T23:30:55.555Z,20.95
2023-03-03T23:33:21.882Z,21.42
2023-03-03T23:35:49.937Z,22.35
2023-03-03T23:38:17.842Z,22.80
2023-03-03T23:40:44.273Z,21.12
2023-03-03T23:43:10.610Z,22.70
2023-03-03T23:45:36.931Z,22.00
2023-03-03T23:48:03.248Z,22.58
2023-03-03T23:50:29.634Z,19.80
2023-03-03T23:52:55.987Z,19.85
2023-03-03T23:55:22.319Z,20.98
2023-03-03T23:57:48.637Z,21.00
